Overview Statistics Trail Chart Weather Telemetry Raw packets
 

This is the latest recevied weather packets stored in our database for station/object IW1QLH-13. If no packets are shown the sender has not sent any weather packets the latest 10 day(s).

<< 42 43 44 45 46 47 48 >>
Time Temp. Humidity Pressure Rain* Wind** Luminosity Snow
1787915507 30° C 11% - - - 228 W/m² -
1787915506 30° C 11% - - - 214 W/m² -
1787913879 30° C 11% - - - 171 W/m² -
1787913267 30° C 11% - - - 228 W/m² -
1787912654 30° C 11% - - - 343 W/m² -
1787912041 30° C 11% - - - 286 W/m² -
1787911422 30° C 11% - - - 471 W/m² -
1787910810 27.78° C 11% - - - 228 W/m² -
1787910188 27.78° C 11% - - - 328 W/m² -
1787909575 25° C 11% - - - 100 W/m² -
1787908962 25.56° C 11% - - - 100 W/m² -
1787908351 26.67° C 11% - - - 42 W/m² -
1787907741 26.67° C 11% - - - 143 W/m² -
1787907130 26.67° C 11% - - - 85 W/m² -
1787906518 28.89° C 11% - - - 57 W/m² -
1787905907 30° C 11% - - - 128 W/m² -
1787905296 30° C 11% - - - 57 W/m² -
1787904685 31.67° C 11% - - - 271 W/m² -
1787904073 30.56° C 11% - - - 328 W/m² -
1787903462 30.56° C 11% - - - 300 W/m² -
1787902850 30° C 11% - - - 271 W/m² -
1787902239 26.67° C 11% - - - 114 W/m² -
1787901626 26.67° C 11% - - - 100 W/m² -
1787901015 27.78° C 11% - - - 114 W/m² -
1787900400 27.78° C 11% - - - 57 W/m² -

* Rain since midnight (hover to see other rain measurements)
** Current wind speed in m/s (hover to see current wind gust speed)